createdAt,value
2019-05-28T00:00:28.881Z,19.8
2019-05-28T00:01:31.090Z,20
2019-05-28T00:02:33.576Z,19.9
2019-05-28T00:03:36.057Z,20
2019-05-28T00:04:38.540Z,20
2019-05-28T00:05:41.030Z,19.9
2019-05-28T00:06:43.502Z,19.9
2019-05-28T00:07:46.042Z,20.2
2019-05-28T00:08:48.531Z,19.8
2019-05-28T00:09:50.734Z,19.9
2019-05-28T00:10:52.648Z,19.8
2019-05-28T00:11:55.114Z,20.2
2019-05-28T00:12:57.312Z,20
2019-05-28T00:13:59.510Z,19.9
2019-05-28T00:15:01.430Z,19.9
2019-05-28T00:16:03.653Z,19.8
2019-05-28T00:17:06.134Z,20.2
2019-05-28T00:18:08.310Z,20.3
2019-05-28T00:19:10.777Z,19.9
2019-05-28T00:20:12.414Z,20.3
2019-05-28T00:21:14.910Z,20.1
2019-05-28T00:22:17.127Z,20.1
2019-05-28T00:23:19.602Z,20.3
2019-05-28T00:24:21.790Z,20.2
2019-05-28T00:26:29.256Z,20.1
2019-05-28T00:27:31.190Z,20
2019-05-28T00:28:33.688Z,20.2
2019-05-28T00:29:36.160Z,20.1
2019-05-28T00:30:38.358Z,20
2019-05-28T00:31:40.574Z,20.1
2019-05-28T00:32:42.779Z,20.1
2019-05-28T00:33:45.256Z,20.2
2019-05-28T00:34:47.723Z,20.1
2019-05-28T00:35:49.892Z,20.1
2019-05-28T00:36:51.841Z,20.1
2019-05-28T00:37:54.059Z,19.9
2019-05-28T00:38:56.568Z,19.9
2019-05-28T00:41:04.082Z,20
2019-05-28T00:42:06.300Z,20.1
2019-05-28T00:43:08.482Z,20.2
2019-05-28T00:44:10.692Z,19.8
2019-05-28T00:45:12.890Z,20.1
2019-05-28T00:46:14.821Z,19.9
2019-05-28T00:47:17.307Z,20.2
2019-05-28T00:48:19.773Z,20.1
2019-05-28T00:49:22.234Z,19.9
2019-05-28T00:50:24.704Z,20
2019-05-28T00:51:26.933Z,20.3
2019-05-28T00:52:29.123Z,19.8
2019-05-28T00:53:31.344Z,20.1
2019-05-28T00:54:33.810Z,20.2
2019-05-28T00:55:35.715Z,20.1
2019-05-28T00:56:37.620Z,20.1
2019-05-28T00:57:39.826Z,20.2
2019-05-28T00:58:41.453Z,20.3
2019-05-28T00:59:43.929Z,20.1
2019-05-28T01:00:46.457Z,20.1
2019-05-28T01:01:48.666Z,20
2019-05-28T01:02:50.582Z,20.3
2019-05-28T01:03:52.766Z,20.3
2019-05-28T01:04:55.279Z,20.1
2019-05-28T01:05:56.991Z,20.2
2019-05-28T01:06:59.463Z,20.2
2019-05-28T01:08:01.767Z,20.2
2019-05-28T01:09:04.244Z,20.3
2019-05-28T01:10:06.181Z,20.2
2019-05-28T01:11:08.400Z,20.2
2019-05-28T01:12:10.882Z,20.2
2019-05-28T01:13:12.786Z,20
2019-05-28T01:14:14.984Z,20.4
2019-05-28T01:15:17.468Z,20.2
2019-05-28T01:16:20.552Z,20.2
2019-05-28T01:17:22.811Z,20.2
2019-05-28T01:18:25.291Z,20.2
2019-05-28T01:19:27.762Z,20.2
2019-05-28T01:20:30.257Z,20.3
2019-05-28T01:21:32.743Z,20.2
2019-05-28T01:22:35.208Z,20.1
2019-05-28T01:23:36.834Z,20.3
2019-05-28T01:24:38.731Z,20.3
2019-05-28T01:25:40.936Z,20.2
2019-05-28T01:26:43.184Z,20.1
2019-05-28T01:27:45.445Z,20.2
2019-05-28T01:28:47.914Z,20.4
2019-05-28T01:29:50.115Z,20.2
2019-05-28T01:31:57.323Z,20.3
2019-05-28T01:32:59.538Z,20.2
2019-05-28T01:34:02.023Z,20.2
2019-05-28T01:35:04.502Z,20.1
2019-05-28T01:36:06.973Z,20.4
2019-05-28T01:37:09.201Z,20.1
2019-05-28T01:38:11.692Z,20.3
2019-05-28T01:39:14.157Z,20.2
2019-05-28T01:40:16.074Z,20.4
2019-05-28T01:41:18.570Z,20
2019-05-28T01:42:21.039Z,20.3
2019-05-28T01:43:23.247Z,20.2
2019-05-28T01:44:25.744Z,20.1
2019-05-28T01:45:28.203Z,20.4
2019-05-28T01:46:30.689Z,20.3
2019-05-28T01:47:32.899Z,20.2
2019-05-28T01:48:35.100Z,20.5
2019-05-28T01:49:37.302Z,20.3
2019-05-28T01:50:39.775Z,20.1
2019-05-28T01:51:41.972Z,20.4
2019-05-28T01:52:44.168Z,20.4
2019-05-28T01:53:46.363Z,20.3
2019-05-28T01:54:48.576Z,20.1
2019-05-28T01:55:50.796Z,20.4
2019-05-28T01:56:52.721Z,20.2
2019-05-28T01:57:55.203Z,20.1
2019-05-28T01:58:57.404Z,20
2019-05-28T01:59:59.616Z,20.3
2019-05-28T02:02:06.799Z,20
2019-05-28T02:03:09.329Z,20.2
2019-05-28T02:04:12.445Z,20.4
2019-05-28T02:05:14.928Z,20.1
2019-05-28T02:06:17.406Z,20.2
2019-05-28T02:07:19.880Z,20.2
2019-05-28T02:08:22.401Z,20.3
2019-05-28T02:09:24.309Z,20.3
2019-05-28T02:10:26.504Z,20.2
2019-05-28T02:11:28.975Z,19.9
2019-05-28T02:12:30.676Z,20.1
2019-05-28T02:13:32.631Z,20.3
2019-05-28T02:14:34.840Z,20.2
2019-05-28T02:15:37.029Z,20.2
2019-05-28T02:16:39.503Z,20.1
2019-05-28T02:17:41.691Z,20.3
2019-05-28T02:18:43.914Z,20.3
2019-05-28T02:19:45.834Z,20.2
2019-05-28T02:20:48.034Z,20.2
2019-05-28T02:21:49.944Z,20.5
2019-05-28T02:22:52.411Z,20.3
2019-05-28T02:23:54.899Z,20.2
2019-05-28T02:24:57.114Z,20.2
2019-05-28T02:25:58.770Z,20.2
2019-05-28T02:27:01.239Z,20.4
2019-05-28T02:28:03.435Z,20.2
2019-05-28T02:29:05.368Z,20.3
2019-05-28T02:30:07.575Z,20.4
2019-05-28T02:31:10.475Z,20.3
2019-05-28T02:32:16.930Z,20.1
2019-05-28T02:33:19.127Z,20.2
2019-05-28T02:34:21.611Z,20.3
2019-05-28T02:35:24.088Z,20.3
2019-05-28T02:36:26.023Z,20.2
2019-05-28T02:37:28.234Z,20.1
2019-05-28T02:38:30.725Z,20.3
2019-05-28T02:39:32.659Z,20.2
2019-05-28T02:40:34.849Z,20.3
2019-05-28T02:41:37.335Z,20.4
2019-05-28T02:42:39.518Z,20.1
2019-05-28T02:43:41.988Z,20.1
2019-05-28T02:44:44.197Z,20
2019-05-28T02:45:46.393Z,20.2
2019-05-28T02:46:48.605Z,20.2
2019-05-28T02:47:50.823Z,20.3
2019-05-28T02:48:53.333Z,20.4
2019-05-28T02:49:55.557Z,20.3
2019-05-28T02:50:58.069Z,20.2
2019-05-28T02:52:00.257Z,20.4
2019-05-28T02:53:02.442Z,20.4
2019-05-28T02:54:04.626Z,20.3
2019-05-28T02:55:07.119Z,20.2
2019-05-28T02:56:09.307Z,20.3
2019-05-28T02:57:11.482Z,20.4
2019-05-28T02:58:13.676Z,20.3
2019-05-28T02:59:15.851Z,20
2019-05-28T03:00:18.355Z,20.4
2019-05-28T03:01:20.834Z,20.3
2019-05-28T03:02:23.323Z,20.1
2019-05-28T03:03:25.803Z,20.1
2019-05-28T03:04:28.270Z,20.3
2019-05-28T03:05:30.471Z,20.2
2019-05-28T03:06:32.949Z,20.4
2019-05-28T03:07:35.428Z,20.3
2019-05-28T03:08:37.911Z,20.2
2019-05-28T03:09:40.397Z,20.2
2019-05-28T03:11:47.869Z,20.3
2019-05-28T03:12:50.366Z,20.2
2019-05-28T03:13:52.898Z,19.9
2019-05-28T03:14:55.383Z,20.1
2019-05-28T03:15:57.945Z,20.1
2019-05-28T03:17:00.116Z,19.9
2019-05-28T03:18:02.083Z,19.9
2019-05-28T03:19:04.544Z,20.3
2019-05-28T03:20:06.810Z,20
2019-05-28T03:21:09.012Z,20.1
2019-05-28T03:22:11.185Z,20.3
2019-05-28T03:23:13.747Z,19.9
2019-05-28T03:24:15.947Z,20
2019-05-28T03:25:18.454Z,20.1
2019-05-28T03:27:26.893Z,20.1
2019-05-28T03:28:29.378Z,20.1
2019-05-28T03:29:31.545Z,20.1
2019-05-28T03:30:33.718Z,19.9
2019-05-28T03:31:36.206Z,20.1
2019-05-28T03:32:38.704Z,20
2019-05-28T03:33:40.650Z,20.1
2019-05-28T03:34:42.955Z,20.1
2019-05-28T03:35:45.427Z,20
2019-05-28T03:36:47.630Z,20.2
2019-05-28T03:37:49.841Z,19.7
2019-05-28T03:38:52.314Z,19.8
2019-05-28T03:39:54.791Z,19.9
2019-05-28T03:40:56.997Z,20
2019-05-28T03:41:59.199Z,20
2019-05-28T03:43:01.684Z,20
2019-05-28T03:44:04.207Z,20.1
2019-05-28T03:45:06.422Z,19.9
2019-05-28T03:46:08.369Z,19.9
2019-05-28T03:47:10.622Z,20.1
2019-05-28T03:48:13.300Z,20.2
2019-05-28T03:49:15.772Z,20
2019-05-28T03:50:18.067Z,20
2019-05-28T03:51:20.579Z,20
2019-05-28T03:52:23.091Z,19.9
2019-05-28T03:53:25.296Z,20
2019-05-28T03:54:27.501Z,20
2019-05-28T03:55:29.425Z,20.1
2019-05-28T03:56:31.648Z,19.8
2019-05-28T03:57:34.126Z,19.9
2019-05-28T03:58:36.614Z,19.9
2019-05-28T03:59:39.092Z,19.7
2019-05-28T04:00:41.632Z,19.8
2019-05-28T04:01:44.122Z,20
2019-05-28T04:02:46.312Z,19.7
2019-05-28T04:03:48.520Z,19.7
2019-05-28T04:04:50.747Z,19.8
2019-05-28T04:05:53.286Z,19.9
2019-05-28T04:06:55.760Z,19.8
2019-05-28T04:07:58.239Z,20
2019-05-28T04:09:00.469Z,19.8
2019-05-28T04:10:02.963Z,20.2
2019-05-28T04:11:05.177Z,19.8
2019-05-28T04:12:07.673Z,19.9
2019-05-28T04:13:09.863Z,20
2019-05-28T04:14:12.340Z,20.1
2019-05-28T04:15:15.511Z,19.8
2019-05-28T04:16:18.197Z,19.8
2019-05-28T04:17:20.411Z,19.8
2019-05-28T04:18:22.310Z,20
2019-05-28T04:19:24.515Z,19.7
2019-05-28T04:20:27.063Z,19.9
2019-05-28T04:21:29.269Z,19.8
2019-05-28T04:22:31.756Z,19.9
2019-05-28T04:23:33.981Z,19.7
2019-05-28T04:24:36.216Z,19.8
2019-05-28T04:25:38.695Z,19.8
2019-05-28T04:26:40.912Z,20
2019-05-28T04:27:43.088Z,20
2019-05-28T04:28:45.281Z,19.9
2019-05-28T04:29:47.485Z,19.8
2019-05-28T04:30:50.043Z,19.8
2019-05-28T04:31:52.244Z,20.1
2019-05-28T04:32:54.756Z,19.8
2019-05-28T04:33:58.959Z,19.8
2019-05-28T04:35:01.472Z,19.9
2019-05-28T04:36:04.063Z,19.7
2019-05-28T04:37:06.543Z,19.9
2019-05-28T04:38:09.058Z,19.7
2019-05-28T04:39:11.725Z,19.7
2019-05-28T04:40:13.945Z,19.9
2019-05-28T04:41:16.128Z,19.9
2019-05-28T04:42:17.779Z,19.9
2019-05-28T04:43:20.007Z,19.8
2019-05-28T04:44:21.913Z,19.9
2019-05-28T04:45:24.092Z,19.7
2019-05-28T04:46:26.711Z,20
2019-05-28T04:47:28.992Z,19.7
2019-05-28T04:48:31.513Z,19.8
2019-05-28T04:49:33.713Z,20
2019-05-28T04:50:35.931Z,19.8
2019-05-28T04:51:38.414Z,19.8
2019-05-28T04:52:40.981Z,19.7
2019-05-28T04:53:43.319Z,19.7
2019-05-28T04:54:45.969Z,19.9
2019-05-28T04:55:48.449Z,19.8
2019-05-28T04:56:51.729Z,19.8
2019-05-28T04:57:53.932Z,19.8
2019-05-28T04:58:56.132Z,20
2019-05-28T04:59:58.304Z,19.9
2019-05-28T05:01:00.514Z,19.6
2019-05-28T05:02:03.222Z,19.8
2019-05-28T05:03:05.721Z,19.8
2019-05-28T05:04:08.519Z,19.7
2019-05-28T05:05:11.205Z,19.8
2019-05-28T05:06:13.753Z,19.6
2019-05-28T05:07:16.216Z,19.6
2019-05-28T05:08:18.444Z,19.7
2019-05-28T05:09:20.683Z,19.7
2019-05-28T05:10:23.452Z,19.6
2019-05-28T05:11:25.936Z,19.9
2019-05-28T05:12:28.329Z,20
2019-05-28T05:13:29.969Z,19.7
2019-05-28T05:14:32.492Z,19.9
2019-05-28T05:15:34.710Z,19.9
2019-05-28T05:16:37.191Z,19.6
2019-05-28T05:17:39.423Z,19.9
2019-05-28T05:18:41.357Z,20
2019-05-28T05:19:43.559Z,19.8
2019-05-28T05:20:46.238Z,20
2019-05-28T05:21:48.462Z,19.7
2019-05-28T05:22:50.929Z,19.8
2019-05-28T05:23:53.393Z,19.9
2019-05-28T05:24:55.311Z,20
2019-05-28T05:25:58.526Z,19.6
2019-05-28T05:27:00.697Z,19.8
2019-05-28T05:28:02.889Z,19.8
2019-05-28T05:29:07.016Z,19.7
2019-05-28T05:30:09.489Z,19.9
2019-05-28T05:31:12.610Z,19.6
2019-05-28T05:32:14.538Z,19.9
2019-05-28T05:34:22.012Z,19.9
2019-05-28T05:35:24.261Z,19.8
2019-05-28T05:36:27.107Z,20
2019-05-28T05:37:29.568Z,19.8
2019-05-28T05:38:32.134Z,19.6
2019-05-28T05:39:34.392Z,19.6
2019-05-28T05:40:37.065Z,19.8
2019-05-28T05:41:39.320Z,19.8
2019-05-28T05:42:41.831Z,19.7
2019-05-28T05:43:44.063Z,19.9
2019-05-28T05:44:46.562Z,19.6
2019-05-28T05:45:49.050Z,19.9
2019-05-28T05:46:51.764Z,19.8
2019-05-28T05:47:54.231Z,19.7
2019-05-28T05:48:56.696Z,19.9
2019-05-28T05:49:59.605Z,20
2019-05-28T05:51:01.591Z,19.7
2019-05-28T05:52:04.280Z,19.8
2019-05-28T05:53:07.169Z,19.5
2019-05-28T05:54:10.307Z,19.7
2019-05-28T05:55:12.793Z,19.6
2019-05-28T05:56:14.987Z,19.8
2019-05-28T05:57:17.456Z,19.9
2019-05-28T05:58:19.693Z,19.9
2019-05-28T05:59:21.895Z,19.8
2019-05-28T06:00:24.394Z,19.7
2019-05-28T06:01:26.332Z,19.8
2019-05-28T06:02:28.538Z,19.7
2019-05-28T06:04:35.468Z,19.8
2019-05-28T06:05:37.956Z,20
2019-05-28T06:06:40.169Z,19.8
2019-05-28T06:07:42.699Z,19.7
2019-05-28T06:08:45.293Z,19.9
2019-05-28T06:09:47.784Z,19.8
2019-05-28T06:10:49.708Z,19.7
2019-05-28T06:11:51.920Z,19.6
2019-05-28T06:12:53.831Z,19.7
2019-05-28T06:13:56.302Z,19.9
2019-05-28T06:14:58.652Z,19.8
2019-05-28T06:16:01.311Z,19.8
2019-05-28T06:17:03.489Z,19.7
2019-05-28T06:18:06.024Z,19.9
2019-05-28T06:19:08.749Z,19.8
2019-05-28T06:20:11.795Z,19.7
2019-05-28T06:22:19.045Z,19.7
2019-05-28T06:23:21.063Z,19.8
2019-05-28T06:24:23.540Z,19.9
2019-05-28T06:25:26.192Z,19.7
2019-05-28T06:26:28.695Z,19.8
2019-05-28T06:27:30.621Z,19.8
2019-05-28T06:28:32.839Z,19.9
2019-05-28T06:29:35.041Z,19.8
2019-05-28T06:30:37.515Z,19.7
2019-05-28T06:31:39.730Z,19.6
2019-05-28T06:32:42.231Z,19.7
2019-05-28T06:34:49.421Z,19.9
2019-05-28T06:35:51.672Z,19.7
2019-05-28T06:36:53.940Z,19.7
2019-05-28T06:37:56.436Z,19.6
2019-05-28T06:38:58.739Z,19.6
2019-05-28T06:40:01.352Z,19.9
2019-05-28T06:41:03.827Z,19.8
2019-05-28T06:42:06.306Z,19.7
2019-05-28T06:43:08.510Z,19.6
2019-05-28T06:44:11.123Z,19.7
2019-05-28T06:45:13.316Z,19.9
2019-05-28T06:46:15.775Z,19.8
2019-05-28T06:47:17.722Z,19.7
2019-05-28T06:48:19.943Z,19.9
2019-05-28T06:49:22.425Z,19.8
2019-05-28T06:50:24.632Z,19.7
2019-05-28T06:51:27.095Z,19.8
2019-05-28T06:52:29.303Z,19.9
2019-05-28T06:53:31.774Z,19.6
2019-05-28T06:54:34.005Z,19.9
2019-05-28T06:55:36.486Z,19.7
2019-05-28T06:56:38.964Z,19.7
2019-05-28T06:57:41.181Z,19.7
2019-05-28T06:58:43.401Z,19.7
2019-05-28T06:59:45.335Z,19.6
2019-05-28T07:00:47.529Z,19.8
2019-05-28T07:01:50.001Z,19.8
2019-05-28T07:02:52.463Z,19.6
2019-05-28T07:03:54.379Z,19.8
2019-05-28T07:05:00.778Z,19.8
2019-05-28T07:07:08.251Z,19.7
2019-05-28T07:08:10.741Z,19.8
2019-05-28T07:09:12.960Z,19.7
2019-05-28T07:10:15.224Z,19.6
2019-05-28T07:11:17.714Z,19.9
2019-05-28T07:12:20.201Z,19.6
2019-05-28T07:13:22.694Z,19.8
2019-05-28T07:14:25.175Z,19.8
2019-05-28T07:15:27.651Z,19.6
2019-05-28T07:16:30.125Z,19.8
2019-05-28T07:17:32.347Z,19.5
2019-05-28T07:18:34.552Z,19.6
2019-05-28T07:19:37.030Z,19.6
2019-05-28T07:20:39.512Z,19.6
2019-05-28T07:21:41.745Z,19.7
2019-05-28T07:22:43.669Z,19.8
2019-05-28T07:23:45.914Z,19.7
2019-05-28T07:24:48.184Z,19.7
2019-05-28T07:25:50.722Z,19.7
2019-05-28T07:26:52.935Z,19.9
2019-05-28T07:29:00.323Z,19.7
2019-05-28T07:30:02.885Z,19.7
2019-05-28T07:31:05.363Z,19.7
2019-05-28T07:32:07.836Z,19.8
2019-05-28T07:33:10.422Z,19.8
2019-05-28T07:34:27.532Z,19.8
2019-05-28T07:35:17.872Z,19.7
2019-05-28T07:36:20.079Z,19.8
2019-05-28T07:37:22.148Z,19.8
2019-05-28T07:38:24.773Z,19.8
2019-05-28T07:39:27.250Z,19.5
2019-05-28T07:41:34.680Z,19.8
2019-05-28T07:42:37.184Z,19.9
2019-05-28T07:43:39.665Z,19.8
2019-05-28T07:44:41.868Z,19.7
2019-05-28T07:45:44.343Z,19.8
2019-05-28T07:46:46.825Z,19.7
2019-05-28T07:47:49.021Z,19.8
2019-05-28T07:48:51.504Z,19.8
2019-05-28T07:49:53.993Z,19.8
2019-05-28T07:50:56.479Z,19.8
2019-05-28T07:51:58.426Z,19.9
2019-05-28T07:53:00.610Z,19.8
2019-05-28T07:54:03.228Z,19.6
2019-05-28T07:55:05.496Z,19.7
2019-05-28T07:56:07.836Z,19.8
2019-05-28T07:57:10.454Z,19.9
2019-05-28T07:58:12.648Z,19.6
2019-05-28T07:59:14.864Z,19.7
2019-05-28T08:00:17.343Z,19.7
2019-05-28T08:01:19.630Z,19.8
2019-05-28T08:02:22.131Z,20
2019-05-28T08:03:24.371Z,19.7
2019-05-28T08:04:26.565Z,19.7
2019-05-28T08:05:28.493Z,19.6
2019-05-28T08:06:30.692Z,19.7
2019-05-28T08:07:33.179Z,19.8
2019-05-28T08:08:35.994Z,19.7
2019-05-28T08:09:38.178Z,19.9
2019-05-28T08:10:40.790Z,19.8
2019-05-28T08:11:43.006Z,19.6
2019-05-28T08:12:45.494Z,19.7
2019-05-28T08:13:47.963Z,19.8
2019-05-28T08:14:53.933Z,19.7
2019-05-28T08:17:01.411Z,19.6
2019-05-28T08:18:03.896Z,19.7
2019-05-28T08:20:11.105Z,19.7
2019-05-28T08:21:13.597Z,19.6
2019-05-28T08:22:16.073Z,19.8
2019-05-28T08:23:18.554Z,19.6
2019-05-28T08:26:30.452Z,19.8
2019-05-28T08:27:32.681Z,19.6
2019-05-28T08:28:34.879Z,19.5
2019-05-28T08:29:37.092Z,19.6
2019-05-28T08:30:39.786Z,19.8
2019-05-28T08:31:42.264Z,19.8
2019-05-28T08:32:44.211Z,19.9
2019-05-28T08:33:46.682Z,19.8
2019-05-28T08:35:54.150Z,19.9
2019-05-28T08:38:01.775Z,19.7
2019-05-28T08:39:04.255Z,19.8
2019-05-28T08:40:06.468Z,19.8
2019-05-28T08:41:08.949Z,19.7
2019-05-28T08:42:11.443Z,19.8
2019-05-28T08:43:13.922Z,19.7
2019-05-28T08:44:16.109Z,19.6
2019-05-28T08:45:18.317Z,19.7
2019-05-28T08:46:20.512Z,19.8
2019-05-28T08:47:22.810Z,19.6
2019-05-28T08:48:25.279Z,19.5
2019-05-28T08:49:27.534Z,19.7
2019-05-28T08:51:35.005Z,19.8
2019-05-28T08:52:37.484Z,19.6
2019-05-28T08:53:40.473Z,19.8
2019-05-28T08:54:43.575Z,19.8
2019-05-28T08:55:46.077Z,19.8
2019-05-28T08:56:48.309Z,19.8
2019-05-28T08:57:50.801Z,19.8
2019-05-28T08:58:53.302Z,19.6
2019-05-28T08:59:55.508Z,19.8
2019-05-28T09:00:57.455Z,19.6
2019-05-28T09:01:59.637Z,19.6
2019-05-28T09:04:06.551Z,19.7
2019-05-28T09:06:13.481Z,19.7
2019-05-28T09:07:15.683Z,19.7
2019-05-28T09:08:18.160Z,19.7
2019-05-28T09:09:25.106Z,19.7
2019-05-28T09:10:27.595Z,19.9
2019-05-28T09:11:30.064Z,19.9
2019-05-28T09:12:32.248Z,19.9
2019-05-28T09:13:34.454Z,19.8
2019-05-28T09:15:41.935Z,19.8
2019-05-28T09:16:43.864Z,19.9
2019-05-28T09:17:46.073Z,19.7
2019-05-28T09:18:48.592Z,19.7
2019-05-28T09:19:50.528Z,19.8
2019-05-28T09:20:52.549Z,19.7
2019-05-28T09:21:55.225Z,19.5
2019-05-28T09:22:57.698Z,19.8
2019-05-28T09:23:59.895Z,19.7
2019-05-28T09:25:02.108Z,19.9
2019-05-28T09:26:04.753Z,19.8
2019-05-28T09:27:07.016Z,19.7
2019-05-28T09:28:25.629Z,19.6
2019-05-28T09:29:14.989Z,19.6
2019-05-28T09:30:17.465Z,19.8
2019-05-28T09:31:20.189Z,19.8
2019-05-28T09:32:22.145Z,19.8
2019-05-28T09:33:24.352Z,19.8
2019-05-28T09:34:26.887Z,19.7
2019-05-28T09:36:34.354Z,19.6
2019-05-28T09:37:36.835Z,19.8
2019-05-28T09:38:39.370Z,19.7
2019-05-28T09:39:41.568Z,19.9
2019-05-28T09:41:49.269Z,19.9
2019-05-28T09:42:51.755Z,19.6
2019-05-28T09:43:54.242Z,19.7
2019-05-28T09:44:56.435Z,19.7
2019-05-28T09:45:58.910Z,19.6
2019-05-28T09:47:01.150Z,19.8
2019-05-28T09:48:03.653Z,19.6
2019-05-28T09:49:06.180Z,19.5
2019-05-28T09:51:13.662Z,19.9
2019-05-28T09:52:15.608Z,20
2019-05-28T09:53:18.110Z,19.8
2019-05-28T09:54:20.578Z,19.8
2019-05-28T09:55:23.069Z,19.6
2019-05-28T09:56:25.610Z,19.7
2019-05-28T09:57:27.831Z,19.8
2019-05-28T09:58:29.450Z,19.5
2019-05-28T10:00:36.930Z,19.9
2019-05-28T10:01:39.417Z,19.7
2019-05-28T10:02:41.917Z,19.8
2019-05-28T10:03:44.520Z,19.7
2019-05-28T10:06:57.038Z,19.9
2019-05-28T10:07:59.392Z,19.8
2019-05-28T10:09:01.873Z,19.6
2019-05-28T10:10:04.095Z,19.6
2019-05-28T10:11:06.334Z,19.7
2019-05-28T10:12:08.538Z,19.7
2019-05-28T10:13:11.024Z,19.9
2019-05-28T10:14:13.510Z,19.8
2019-05-28T10:15:15.721Z,19.6
2019-05-28T10:16:18.208Z,19.9
2019-05-28T10:17:20.694Z,19.8
2019-05-28T10:18:22.878Z,19.6
2019-05-28T10:19:25.157Z,19.8
2019-05-28T10:20:27.666Z,19.7
2019-05-28T10:21:29.859Z,19.5
2019-05-28T10:22:32.081Z,19.8
2019-05-28T10:23:34.538Z,19.9
2019-05-28T10:24:37.012Z,19.9
2019-05-28T10:25:38.939Z,19.6
2019-05-28T10:26:41.412Z,19.7
2019-05-28T10:28:51.134Z,19.6
2019-05-28T10:29:53.747Z,19.6
2019-05-28T10:30:56.136Z,19.6
2019-05-28T10:31:58.691Z,19.9
2019-05-28T10:33:01.218Z,19.7
2019-05-28T10:34:03.752Z,19.6
2019-05-28T10:35:05.752Z,19.5
2019-05-28T10:36:08.225Z,19.6
2019-05-28T10:37:09.888Z,19.6
2019-05-28T10:39:17.128Z,19.5
2019-05-28T10:40:19.362Z,19.9
2019-05-28T10:41:21.741Z,19.7
2019-05-28T10:42:23.957Z,19.8
2019-05-28T10:43:26.144Z,19.6
2019-05-28T10:44:28.356Z,19.8
2019-05-28T10:45:30.849Z,19.9
2019-05-28T10:46:33.110Z,19.7
2019-05-28T10:47:35.630Z,19.4
2019-05-28T10:48:37.920Z,19.6
2019-05-28T10:49:40.091Z,19.6
2019-05-28T10:50:42.065Z,19.7
2019-05-28T10:51:44.571Z,19.7
2019-05-28T10:52:47.077Z,19.7
2019-05-28T10:53:49.731Z,19.8
2019-05-28T10:54:51.933Z,19.9
2019-05-28T10:55:54.126Z,19.7
2019-05-28T10:56:56.036Z,19.5
2019-05-28T10:57:58.258Z,19.8
2019-05-28T10:59:00.073Z,19.7
2019-05-28T11:00:03.217Z,19.7
2019-05-28T11:01:06.314Z,19.8
2019-05-28T11:02:08.565Z,19.5
2019-05-28T11:03:10.778Z,19.7
2019-05-28T11:04:13.263Z,19.6
2019-05-28T11:05:15.165Z,19.8
2019-05-28T11:06:17.102Z,19.6
2019-05-28T11:07:19.680Z,19.8
2019-05-28T11:08:21.877Z,19.7
2019-05-28T11:09:24.404Z,19.5
2019-05-28T11:10:26.891Z,19.6
2019-05-28T11:11:28.522Z,19.8
2019-05-28T11:12:30.750Z,19.5
2019-05-28T11:13:32.448Z,19.7
2019-05-28T11:14:34.924Z,19.6
2019-05-28T11:15:37.098Z,19.7
2019-05-28T11:16:39.311Z,19.9
2019-05-28T11:17:41.790Z,19.6
2019-05-28T11:18:44.024Z,19.8
2019-05-28T11:19:46.511Z,19.7
2019-05-28T11:20:48.720Z,19.5
2019-05-28T11:21:51.226Z,19.8
2019-05-28T11:22:53.135Z,19.5
2019-05-28T11:23:55.344Z,19.7
2019-05-28T11:24:57.834Z,19.7
2019-05-28T11:26:00.318Z,19.9
2019-05-28T11:27:02.543Z,19.7
2019-05-28T11:28:04.750Z,19.6
2019-05-28T11:29:06.973Z,19.8
2019-05-28T11:30:09.191Z,19.7
2019-05-28T11:31:11.391Z,19.6
2019-05-28T11:32:13.865Z,19.7
2019-05-28T11:33:18.019Z,19.7
2019-05-28T11:34:19.971Z,19.7
2019-05-28T11:35:22.192Z,19.6
2019-05-28T11:36:24.675Z,19.7
2019-05-28T11:37:27.138Z,19.7
2019-05-28T11:38:29.351Z,19.8
2019-05-28T11:39:31.816Z,19.9
2019-05-28T11:40:33.765Z,19.6
2019-05-28T11:42:40.960Z,19.7
2019-05-28T11:43:44.363Z,19.8
2019-05-28T11:44:46.573Z,19.6
2019-05-28T11:45:49.044Z,19.7
2019-05-28T11:46:51.508Z,19.9
2019-05-28T11:47:54.012Z,19.6
2019-05-28T11:48:56.505Z,19.6
2019-05-28T11:49:58.980Z,19.7
2019-05-28T11:51:01.538Z,19.7
2019-05-28T11:52:04.034Z,19.6
2019-05-28T11:53:06.610Z,19.5
2019-05-28T11:54:08.838Z,19.4
2019-05-28T11:55:11.088Z,19.5
2019-05-28T11:56:13.672Z,19.7
2019-05-28T11:57:16.146Z,19.7
2019-05-28T11:58:18.331Z,19.5
2019-05-28T11:59:21.016Z,19.6
2019-05-28T12:00:23.003Z,19.7
2019-05-28T12:02:30.527Z,19.7
2019-05-28T12:03:32.460Z,19.8
2019-05-28T12:04:35.018Z,19.8
2019-05-28T12:05:37.538Z,19.7
2019-05-28T12:06:40.032Z,19.7
2019-05-28T12:07:42.507Z,19.8
2019-05-28T12:08:45.073Z,19.7
2019-05-28T12:09:47.587Z,19.4
2019-05-28T12:10:49.812Z,19.6
2019-05-28T12:11:52.290Z,19.7
2019-05-28T12:12:54.239Z,19.9
2019-05-28T12:13:56.710Z,19.8
2019-05-28T12:14:59.189Z,19.8
2019-05-28T12:16:01.402Z,19.5
2019-05-28T12:17:03.870Z,19.7
2019-05-28T12:18:06.407Z,19.6
2019-05-28T12:19:08.637Z,19.9
2019-05-28T12:20:11.321Z,19.8
2019-05-28T12:21:16.073Z,19.6
2019-05-28T12:22:17.733Z,19.7
2019-05-28T12:23:19.916Z,19.7
2019-05-28T12:24:22.552Z,19.8
2019-05-28T12:25:29.029Z,19.7
2019-05-28T12:26:31.511Z,19.8
2019-05-28T12:27:33.988Z,19.7
2019-05-28T12:30:46.451Z,19.8
2019-05-28T12:31:48.941Z,19.5
2019-05-28T12:32:51.173Z,19.8
2019-05-28T12:33:53.645Z,19.6
2019-05-28T12:34:55.890Z,19.7
2019-05-28T12:35:58.401Z,19.6
2019-05-28T12:37:00.612Z,19.7
2019-05-28T12:38:02.552Z,19.8
2019-05-28T12:39:05.083Z,19.6
2019-05-28T12:40:07.551Z,19.6
2019-05-28T12:41:10.042Z,19.8
2019-05-28T12:42:12.392Z,19.6
2019-05-28T12:43:14.347Z,19.4
2019-05-28T12:44:17.904Z,19.7
2019-05-28T12:46:25.113Z,19.8
2019-05-28T12:47:27.604Z,19.5
2019-05-28T12:48:30.090Z,19.6
2019-05-28T12:49:32.665Z,19.6
2019-05-28T12:50:35.163Z,19.5
2019-05-28T12:51:37.653Z,19.7
2019-05-28T12:52:40.128Z,19.6
2019-05-28T12:54:47.674Z,19.6
2019-05-28T12:55:49.890Z,19.5
2019-05-28T12:56:51.800Z,19.7
2019-05-28T12:57:54.336Z,19.4
2019-05-28T12:58:56.958Z,19.5
2019-05-28T12:59:59.474Z,19.7
2019-05-28T13:01:02.205Z,19.5
2019-05-28T13:02:04.494Z,19.7
2019-05-28T13:03:06.988Z,19.6
2019-05-28T13:04:09.263Z,19.6
2019-05-28T13:05:12.081Z,19.5
2019-05-28T13:06:14.559Z,19.7
2019-05-28T13:07:17.042Z,19.8
2019-05-28T13:08:18.696Z,19.7
2019-05-28T13:09:21.176Z,19.6
2019-05-28T13:10:23.653Z,19.7
2019-05-28T13:11:25.586Z,19.9
2019-05-28T13:12:28.050Z,19.5
2019-05-28T13:13:30.543Z,19.4
2019-05-28T13:14:33.013Z,19.7
2019-05-28T13:15:35.337Z,19.6
2019-05-28T13:16:41.860Z,19.8
2019-05-28T13:17:44.409Z,19.7
2019-05-28T13:18:46.618Z,19.9
2019-05-28T13:19:49.102Z,19.6
2019-05-28T13:20:51.933Z,19.8
2019-05-28T13:21:54.136Z,19.7
2019-05-28T13:22:56.358Z,19.9
2019-05-28T13:23:58.562Z,19.7
2019-05-28T13:25:00.804Z,19.8
2019-05-28T13:26:03.270Z,19.7
2019-05-28T13:28:10.216Z,19.9
2019-05-28T13:29:12.696Z,19.7
2019-05-28T13:30:15.713Z,19.6
2019-05-28T13:31:19.145Z,19.6
2019-05-28T13:32:21.627Z,19.6
2019-05-28T13:33:23.554Z,19.6
2019-05-28T13:34:25.774Z,19.7
2019-05-28T13:35:27.981Z,19.5
2019-05-28T13:36:30.488Z,19.6
2019-05-28T13:37:32.582Z,19.7
2019-05-28T13:38:35.051Z,19.8
2019-05-28T13:39:36.995Z,19.6
2019-05-28T13:40:39.212Z,19.7
2019-05-28T13:41:41.131Z,19.4
2019-05-28T13:42:42.761Z,19.8
2019-05-28T13:43:45.133Z,19.4
2019-05-28T13:44:47.345Z,19.6
2019-05-28T13:45:50.192Z,19.5
2019-05-28T13:46:52.391Z,19.5
2019-05-28T13:47:54.912Z,19.8
2019-05-28T13:48:57.140Z,19.7
2019-05-28T13:49:59.655Z,19.7
2019-05-28T13:51:01.872Z,19.8
2019-05-28T13:53:09.345Z,19.7
2019-05-28T13:54:11.837Z,19.7
2019-05-28T13:55:14.319Z,19.8
2019-05-28T13:56:16.504Z,19.7
2019-05-28T13:57:18.997Z,19.6
2019-05-28T13:58:21.489Z,19.7
2019-05-28T13:59:23.793Z,19.6
2019-05-28T14:00:26.335Z,19.7
2019-05-28T14:01:28.847Z,19.8
2019-05-28T14:02:31.902Z,19.6
2019-05-28T14:03:34.382Z,19.5
2019-05-28T14:04:36.851Z,19.6
2019-05-28T14:05:39.333Z,19.7
2019-05-28T14:07:46.552Z,19.7
2019-05-28T14:08:48.745Z,19.6
2019-05-28T14:09:51.052Z,19.7
2019-05-28T14:10:53.662Z,19.7
2019-05-28T14:11:55.870Z,19.7
2019-05-28T14:12:58.364Z,19.8
2019-05-28T14:14:00.867Z,19.5
2019-05-28T14:15:03.150Z,19.8
2019-05-28T14:16:05.359Z,19.8
2019-05-28T14:17:07.863Z,19.8
2019-05-28T14:18:10.541Z,19.7
2019-05-28T14:19:13.230Z,19.7
2019-05-28T14:20:15.796Z,19.8
2019-05-28T14:21:19.208Z,19.5
2019-05-28T14:23:26.698Z,19.7
2019-05-28T14:24:29.171Z,19.7
2019-05-28T14:25:31.702Z,19.6
2019-05-28T14:26:34.196Z,19.8
2019-05-28T14:27:36.741Z,19.6
2019-05-28T14:28:39.251Z,19.5
2019-05-28T14:29:41.729Z,19.8
2019-05-28T14:31:49.197Z,19.6
2019-05-28T14:32:51.672Z,19.9
2019-05-28T14:33:53.894Z,19.9
2019-05-28T14:34:56.363Z,19.6
2019-05-28T14:35:58.868Z,19.7
2019-05-28T14:37:01.400Z,19.8
2019-05-28T14:38:03.645Z,19.8
2019-05-28T14:39:05.848Z,19.8